Time;durP1;ratioP1;P1;durP2;ratioP2;P2;SDS_P1;SDS_P2;PMS_P1;PMS_P2;Temp;Humidity;BMP_temperature;BMP_pressure;BME280_temperature;BME280_humidity;BME280_pressure;Samples;Min_cycle;Max_cycle;Signal;HPM_P1;HPM_P2
2022/07/26 00:00:05;;;;;;;;;;;20.20;52.20;;;;;;5169313;27;19938;-47
2022/07/26 00:02:30;;;;;;;;;;;20.20;51.60;;;;;;5163853;27;20301;-46
2022/07/26 00:04:56;;;;;;;;;;;20.00;51.70;;;;;;5163563;27;19934;-47
2022/07/26 00:07:22;;;;;;;;;;;20.00;51.10;;;;;;5167591;27;20389;-48
2022/07/26 00:09:48;;;;;;;;;;;19.80;51.00;;;;;;5163348;27;19927;-48
2022/07/26 00:12:14;;;;;;;;;;;19.80;51.00;;;;;;5163800;27;20290;-47
2022/07/26 00:14:39;;;;;;;;;;;20.30;53.80;;;;;;5169357;27;19927;-47
2022/07/26 00:17:05;;;;;;;;;;;21.20;55.80;;;;;;5163853;27;19952;-45
2022/07/26 00:19:31;;;;;;;;;;;21.80;55.90;;;;;;5169123;27;20323;-53
2022/07/26 00:24:41;;;;;;;;;;;20.80;53.60;;;;;;5162485;27;19933;-47
2022/07/26 00:27:08;;;;;;;;;;;20.50;52.70;;;;;;5167934;27;20030;-46
2022/07/26 00:29:33;;;;;;;;;;;20.40;51.90;;;;;;5163634;27;19922;-45
2022/07/26 00:31:59;;;;;;;;;;;20.30;51.80;;;;;;5163741;27;19974;-46
2022/07/26 00:34:25;;;;;;;;;;;19.90;52.10;;;;;;5150568;27;20305;-46
2022/07/26 00:36:51;;;;;;;;;;;20.00;51.20;;;;;;5163410;27;19927;-45
2022/07/26 00:39:17;;;;;;;;;;;19.80;51.50;;;;;;5163394;27;20331;-49
2022/07/26 00:41:42;;;;;;;;;;;20.00;51.10;;;;;;5149936;27;19931;-50
2022/07/26 00:44:08;;;;;;;;;;;20.30;54.00;;;;;;5143128;27;19930;-45
2022/07/26 00:46:35;;;;;;;;;;;21.10;56.40;;;;;;5168106;27;19929;-48
2022/07/26 00:49:01;;;;;;;;;;;21.80;56.00;;;;;;5163202;27;20034;-45
2022/07/26 00:51:27;;;;;;;;;;;21.30;54.50;;;;;;5163287;27;19926;-48
2022/07/26 00:53:53;;;;;;;;;;;20.90;53.40;;;;;;5168759;27;20028;-48
2022/07/26 00:56:19;;;;;;;;;;;20.40;52.80;;;;;;5142804;27;20023;-48
2022/07/26 00:58:44;;;;;;;;;;;20.30;52.40;;;;;;5144347;27;20200;-47
2022/07/26 01:01:10;;;;;;;;;;;19.90;52.30;;;;;;5167359;27;19938;-51
2022/07/26 01:03:36;;;;;;;;;;;20.20;51.50;;;;;;5161623;27;20225;-47
2022/07/26 01:06:02;;;;;;;;;;;20.30;51.10;;;;;;5166662;27;20423;-54
2022/07/26 01:08:27;;;;;;;;;;;20.10;51.20;;;;;;5164625;27;20310;-50
2022/07/26 01:10:53;;;;;;;;;;;20.10;51.30;;;;;;5162925;27;19976;-47
2022/07/26 01:13:19;;;;;;;;;;;20.40;55.60;;;;;;5168336;27;19930;-47
2022/07/26 01:15:45;;;;;;;;;;;21.30;57.10;;;;;;5162733;27;20025;-48
2022/07/26 01:18:11;;;;;;;;;;;21.90;55.90;;;;;;5162960;27;20289;-51
2022/07/26 01:20:37;;;;;;;;;;;21.00;55.00;;;;;;5166661;27;19926;-46
2022/07/26 01:23:02;;;;;;;;;;;20.70;53.90;;;;;;5162114;27;20042;-47
2022/07/26 01:25:29;;;;;;;;;;;20.30;53.40;;;;;;5164407;27;20286;-56
2022/07/26 01:27:55;;;;;;;;;;;20.10;52.70;;;;;;5167011;27;19929;-47
2022/07/26 01:30:20;;;;;;;;;;;20.00;51.80;;;;;;5144183;27;19926;-47
2022/07/26 01:32:46;;;;;;;;;;;19.70;51.80;;;;;;5167215;27;19958;-49
2022/07/26 01:35:12;;;;;;;;;;;20.00;54.30;;;;;;5162575;27;19945;-50
2022/07/26 01:37:38;;;;;;;;;;;20.80;58.50;;;;;;5161533;27;20045;-48
2022/07/26 01:40:04;;;;;;;;;;;21.60;58.30;;;;;;5166584;27;20401;-45
2022/07/26 01:42:30;;;;;;;;;;;21.30;56.10;;;;;;5162338;27;20026;-48
2022/07/26 01:44:55;;;;;;;;;;;20.80;54.90;;;;;;5143602;27;19930;-48
2022/07/26 01:47:21;;;;;;;;;;;20.50;53.80;;;;;;5167861;27;19966;-45
2022/07/26 01:49:47;;;;;;;;;;;20.40;53.00;;;;;;5162287;27;19930;-47
2022/07/26 01:52:13;;;;;;;;;;;20.30;52.40;;;;;;5167591;27;19923;-48
2022/07/26 01:54:38;;;;;;;;;;;20.10;52.00;;;;;;5162379;27;19996;-47
2022/07/26 01:57:04;;;;;;;;;;;19.80;51.90;;;;;;5160374;27;19983;-48
2022/07/26 01:59:30;;;;;;;;;;;20.10;54.90;;;;;;5166766;27;19923;-48
2022/07/26 02:01:56;;;;;;;;;;;20.80;58.70;;;;;;5161992;27;20029;-46
2022/07/26 02:07:06;;;;;;;;;;;21.30;56.60;;;;;;5167596;27;19926;-48
2022/07/26 02:09:32;;;;;;;;;;;20.60;55.00;;;;;;5161782;27;19938;-46
2022/07/26 02:11:57;;;;;;;;;;;20.50;53.70;;;;;;5163066;27;20275;-55
2022/07/26 02:14:23;;;;;;;;;;;20.40;52.90;;;;;;5165661;27;19922;-48
2022/07/26 02:16:49;;;;;;;;;;;20.20;52.80;;;;;;5160635;27;19923;-47
2022/07/26 02:19:15;;;;;;;;;;;20.00;52.50;;;;;;5167354;27;19929;-47
2022/07/26 02:21:41;;;;;;;;;;;19.90;52.00;;;;;;5161615;27;19926;-47
2022/07/26 02:24:07;;;;;;;;;;;20.00;53.90;;;;;;5161731;27;19958;-46
2022/07/26 02:26:33;;;;;;;;;;;20.70;58.70;;;;;;5167078;27;19930;-48
2022/07/26 02:28:58;;;;;;;;;;;21.50;59.10;;;;;;5161679;27;19990;-48
2022/07/26 02:31:24;;;;;;;;;;;21.70;56.90;;;;;;5161780;27;20386;-48
2022/07/26 02:33:50;;;;;;;;;;;20.80;55.50;;;;;;5165572;27;20340;-48
2022/07/26 02:36:16;;;;;;;;;;;20.50;54.10;;;;;;5160613;27;19929;-46
2022/07/26 02:38:41;;;;;;;;;;;20.30;53.40;;;;;;5167227;27;19936;-47
2022/07/26 02:41:07;;;;;;;;;;;20.20;52.60;;;;;;5161704;27;19923;-49
2022/07/26 02:43:33;;;;;;;;;;;20.10;52.20;;;;;;5161647;27;19922;-47
2022/07/26 02:45:59;;;;;;;;;;;19.80;52.20;;;;;;5170532;27;19965;-47
2022/07/26 02:48:24;;;;;;;;;;;19.90;52.00;;;;;;5165270;27;20286;-50
2022/07/26 02:50:50;;;;;;;;;;;20.50;57.20;;;;;;5164487;27;20167;-46
2022/07/26 02:53:16;;;;;;;;;;;21.30;59.00;;;;;;5148890;27;19927;-50
2022/07/26 02:55:42;;;;;;;;;;;21.70;57.50;;;;;;5164798;27;19926;-47
2022/07/26 02:58:07;;;;;;;;;;;20.90;55.80;;;;;;5151961;27;19929;-47
2022/07/26 03:00:33;;;;;;;;;;;20.60;54.40;;;;;;5165267;27;19930;-48
2022/07/26 03:02:59;;;;;;;;;;;20.40;53.40;;;;;;5165299;27;20415;-44
2022/07/26 03:05:25;;;;;;;;;;;20.20;53.00;;;;;;5170292;27;19922;-46
2022/07/26 03:07:51;;;;;;;;;;;20.10;52.70;;;;;;5164863;27;19973;-46
2022/07/26 03:10:17;;;;;;;;;;;20.20;52.00;;;;;;5163425;27;20194;-45
2022/07/26 03:12:42;;;;;;;;;;;20.20;51.60;;;;;;5169435;27;19949;-49
2022/07/26 03:15:08;;;;;;;;;;;19.90;51.70;;;;;;5164722;27;19956;-50
2022/07/26 03:17:37;;;;;;;;;;;20.30;55.80;;;;;;5170441;27;19923;-49
2022/07/26 03:20:03;;;;;;;;;;;21.00;59.00;;;;;;5166021;27;19927;-49
2022/07/26 03:22:29;;;;;;;;;;;21.80;58.20;;;;;;5164558;27;19927;-47
2022/07/26 03:24:55;;;;;;;;;;;21.00;56.50;;;;;;5170332;27;19922;-46
2022/07/26 03:27:20;;;;;;;;;;;20.60;55.00;;;;;;5164125;27;19934;-47
2022/07/26 03:29:46;;;;;;;;;;;20.40;54.00;;;;;;5163008;27;19923;-50
2022/07/26 03:32:12;;;;;;;;;;;20.20;53.00;;;;;;5169703;27;19923;-49
2022/07/26 03:34:38;;;;;;;;;;;20.10;52.80;;;;;;5164587;27;19923;-48
2022/07/26 03:37:04;;;;;;;;;;;20.30;52.30;;;;;;5148463;27;19930;-56
2022/07/26 03:39:29;;;;;;;;;;;20.10;51.90;;;;;;5167787;27;19942;-47
2022/07/26 03:41:55;;;;;;;;;;;20.10;51.60;;;;;;5164237;27;19937;-48
2022/07/26 03:44:21;;;;;;;;;;;20.30;56.70;;;;;;5169670;27;19922;-51
2022/07/26 03:46:47;;;;;;;;;;;21.10;58.90;;;;;;5162838;27;20134;-51
2022/07/26 03:49:12;;;;;;;;;;;21.90;58.10;;;;;;5163174;27;20426;-46
2022/07/26 03:51:38;;;;;;;;;;;21.20;56.30;;;;;;5169583;27;20006;-47
2022/07/26 03:54:04;;;;;;;;;;;20.70;54.80;;;;;;5164240;27;19970;-47
2022/07/26 03:56:30;;;;;;;;;;;20.60;53.50;;;;;;5163930;27;19922;-54
2022/07/26 03:58:57;;;;;;;;;;;20.30;53.00;;;;;;5169357;27;19951;-46
2022/07/26 04:01:23;;;;;;;;;;;20.10;52.90;;;;;;5163802;27;19922;-52
2022/07/26 04:03:48;;;;;;;;;;;20.00;52.50;;;;;;5169293;27;19923;-51
2022/07/26 04:06:15;;;;;;;;;;;20.00;52.10;;;;;;5162340;27;19933;-48
2022/07/26 04:08:40;;;;;;;;;;;20.10;51.60;;;;;;5163276;27;19923;-48
2022/07/26 04:11:06;;;;;;;;;;;19.80;51.70;;;;;;5169413;27;20438;-50
2022/07/26 04:13:34;;;;;;;;;;;20.10;54.80;;;;;;5163950;27;20426;-47
2022/07/26 04:16:00;;;;;;;;;;;20.80;58.80;;;;;;5163877;27;20078;-46
2022/07/26 04:18:25;;;;;;;;;;;21.70;58.40;;;;;;5169032;27;19950;-46
2022/07/26 04:20:51;;;;;;;;;;;21.20;56.30;;;;;;5164033;27;19922;-47
2022/07/26 04:23:17;;;;;;;;;;;20.70;54.80;;;;;;5167972;27;19949;-48
2022/07/26 04:25:43;;;;;;;;;;;20.30;53.70;;;;;;5162269;27;19927;-48
2022/07/26 04:28:09;;;;;;;;;;;20.10;53.60;;;;;;5163742;27;19942;-47
2022/07/26 04:30:35;;;;;;;;;;;20.10;52.80;;;;;;5150660;27;20369;-49
2022/07/26 04:33:01;;;;;;;;;;;20.10;52.10;;;;;;5145191;27;19938;-47
2022/07/26 04:35:26;;;;;;;;;;;20.10;51.90;;;;;;5163591;27;20474;-47
2022/07/26 04:37:52;;;;;;;;;;;20.10;53.90;;;;;;5168928;27;19927;-48
2022/07/26 04:40:18;;;;;;;;;;;20.80;58.20;;;;;;5144850;27;19930;-47
2022/07/26 04:42:44;;;;;;;;;;;21.60;58.50;;;;;;5167111;27;19933;-49
2022/07/26 04:45:11;;;;;;;;;;;21.30;56.40;;;;;;5163240;27;19923;-47
2022/07/26 04:47:40;;;;;;;;;;;20.70;55.20;;;;;;5142592;27;19931;-45
2022/07/26 04:50:06;;;;;;;;;;;20.60;53.60;;;;;;5168777;27;20271;-45
2022/07/26 04:52:31;;;;;;;;;;;20.30;53.40;;;;;;5163429;27;19930;-52
2022/07/26 04:54:57;;;;;;;;;;;20.30;52.50;;;;;;5163069;27;19930;-48
2022/07/26 04:57:23;;;;;;;;;;;20.20;51.90;;;;;;5168765;27;20377;-49
2022/07/26 04:59:49;;;;;;;;;;;20.10;51.70;;;;;;5162058;27;20017;-50
2022/07/26 05:02:15;;;;;;;;;;;19.90;51.80;;;;;;5163624;27;19948;-57
2022/07/26 05:04:41;;;;;;;;;;;20.10;55.70;;;;;;5166895;27;20378;-48
2022/07/26 05:07:07;;;;;;;;;;;21.00;58.40;;;;;;5161995;27;19986;-47
2022/07/26 05:09:33;;;;;;;;;;;21.80;58.20;;;;;;5168669;27;20703;-46
2022/07/26 05:11:59;;;;;;;;;;;21.20;56.20;;;;;;5162945;27;19931;-50
2022/07/26 05:14:25;;;;;;;;;;;20.90;54.60;;;;;;5163039;27;19922;-44
2022/07/26 05:16:50;;;;;;;;;;;20.60;53.80;;;;;;5168309;27;19922;-47
2022/07/26 05:19:16;;;;;;;;;;;20.30;53.00;;;;;;5160848;27;19927;-49
2022/07/26 05:21:42;;;;;;;;;;;20.20;52.40;;;;;;5162121;27;19926;-46
2022/07/26 05:24:08;;;;;;;;;;;20.00;52.60;;;;;;5168011;27;20408;-48
2022/07/26 05:26:34;;;;;;;;;;;20.20;51.50;;;;;;5162579;27;19927;-47
2022/07/26 05:29:00;;;;;;;;;;;19.90;51.60;;;;;;5168266;27;19971;-48
2022/07/26 05:31:25;;;;;;;;;;;20.40;57.00;;;;;;5162420;27;19922;-48
2022/07/26 05:33:51;;;;;;;;;;;21.20;58.80;;;;;;5143286;27;19930;-47
2022/07/26 05:36:18;;;;;;;;;;;21.90;57.40;;;;;;5167122;27;20357;-49
2022/07/26 05:38:44;;;;;;;;;;;21.00;56.10;;;;;;5161107;27;19923;-45
2022/07/26 05:41:09;;;;;;;;;;;20.90;54.20;;;;;;5162342;27;19981;-46
2022/07/26 05:43:35;;;;;;;;;;;20.60;53.70;;;;;;5149385;27;19927;-45
2022/07/26 05:46:01;;;;;;;;;;;20.30;53.20;;;;;;5162735;27;20053;-45
2022/07/26 05:48:27;;;;;;;;;;;20.30;52.50;;;;;;5167704;27;19933;-48
2022/07/26 05:50:53;;;;;;;;;;;20.20;52.30;;;;;;5162189;27;20483;-48
2022/07/26 05:53:18;;;;;;;;;;;20.00;52.30;;;;;;5162246;27;19954;-48
2022/07/26 05:55:44;;;;;;;;;;;20.00;51.90;;;;;;5166119;27;20006;-50
2022/07/26 05:58:10;;;;;;;;;;;20.30;56.40;;;;;;5161566;27;20386;-48
2022/07/26 06:00:36;;;;;;;;;;;21.00;59.00;;;;;;5162051;27;19923;-46
2022/07/26 06:05:50;;;;;;;;;;;21.20;55.70;;;;;;5162403;27;19973;-45
2022/07/26 06:08:16;;;;;;;;;;;20.80;54.50;;;;;;5161968;27;20166;-46
2022/07/26 06:10:42;;;;;;;;;;;20.40;53.70;;;;;;5167421;27;19930;-46
2022/07/26 06:13:08;;;;;;;;;;;20.30;53.10;;;;;;5161031;27;19974;-51
2022/07/26 06:15:33;;;;;;;;;;;20.30;52.40;;;;;;5166041;27;19927;-46
2022/07/26 06:17:59;;;;;;;;;;;20.20;51.90;;;;;;5161519;27;19934;-50
2022/07/26 06:20:25;;;;;;;;;;;20.20;51.70;;;;;;5162004;27;19927;-49
2022/07/26 06:22:51;;;;;;;;;;;20.00;51.60;;;;;;5167367;27;20392;-47
2022/07/26 06:25:17;;;;;;;;;;;20.20;56.00;;;;;;5161665;27;20006;-50
2022/07/26 06:27:43;;;;;;;;;;;21.10;58.10;;;;;;5161426;27;20381;-49
2022/07/26 06:30:09;;;;;;;;;;;21.80;57.20;;;;;;5167182;27;20252;-49
2022/07/26 06:32:35;;;;;;;;;;;21.20;55.40;;;;;;5159993;27;19927;-46
2022/07/26 06:35:00;;;;;;;;;;;20.70;54.30;;;;;;5166162;27;19933;-53
2022/07/26 06:37:26;;;;;;;;;;;20.50;53.10;;;;;;5162252;27;19978;-48
2022/07/26 06:39:52;;;;;;;;;;;20.30;52.60;;;;;;5161806;27;20286;-47
2022/07/26 06:42:18;;;;;;;;;;;20.30;52.00;;;;;;5167241;27;20163;-47
2022/07/26 06:44:44;;;;;;;;;;;20.00;51.80;;;;;;5161363;27;20020;-46
2022/07/26 06:47:09;;;;;;;;;;;19.90;51.60;;;;;;5161401;27;19927;-48
2022/07/26 06:49:35;;;;;;;;;;;20.00;51.20;;;;;;5148003;27;19926;-52
2022/07/26 06:52:01;;;;;;;;;;;19.90;52.50;;;;;;5159802;27;19949;-46
2022/07/26 06:54:27;;;;;;;;;;;20.70;56.80;;;;;;5164603;27;20384;-51
2022/07/26 06:56:52;;;;;;;;;;;21.50;57.10;;;;;;5145558;27;20033;-46
2022/07/26 06:59:19;;;;;;;;;;;21.50;55.00;;;;;;5161729;27;20009;-45
2022/07/26 07:01:44;;;;;;;;;;;20.80;54.30;;;;;;5166890;27;19937;-48
2022/07/26 07:04:10;;;;;;;;;;;20.60;53.00;;;;;;5161086;27;20348;-47
2022/07/26 07:06:36;;;;;;;;;;;20.30;52.60;;;;;;5161092;27;20022;-45
2022/07/26 07:09:02;;;;;;;;;;;20.10;51.90;;;;;;5165005;27;19922;-47
2022/07/26 07:11:28;;;;;;;;;;;20.00;51.50;;;;;;5160303;27;19975;-47
2022/07/26 07:13:53;;;;;;;;;;;20.00;51.30;;;;;;5162149;27;19923;-53
2022/07/26 07:16:19;;;;;;;;;;;20.10;51.00;;;;;;5166119;27;19930;-50
2022/07/26 07:18:45;;;;;;;;;;;20.20;53.70;;;;;;5161251;27;19930;-49
2022/07/26 07:21:11;;;;;;;;;;;21.00;56.10;;;;;;5166533;27;20330;-47
2022/07/26 07:23:36;;;;;;;;;;;21.80;55.50;;;;;;5156785;27;19927;-46
2022/07/26 07:26:02;;;;;;;;;;;21.30;54.10;;;;;;5160659;27;19926;-47
2022/07/26 07:28:28;;;;;;;;;;;20.80;53.30;;;;;;5164550;27;19933;-48
2022/07/26 07:30:54;;;;;;;;;;;20.60;52.40;;;;;;5162641;27;19974;-46
2022/07/26 07:33:20;;;;;;;;;;;20.40;52.10;;;;;;5164436;27;19926;-50
2022/07/26 07:35:45;;;;;;;;;;;20.30;51.00;;;;;;5170202;27;19923;-45
2022/07/26 07:38:11;;;;;;;;;;;20.30;51.10;;;;;;5164510;27;20297;-47
2022/07/26 07:40:37;;;;;;;;;;;20.10;50.90;;;;;;5169772;27;19927;-46
2022/07/26 07:43:03;;;;;;;;;;;19.90;50.80;;;;;;5164346;27;19987;-48
2022/07/26 07:45:29;;;;;;;;;;;19.90;50.50;;;;;;5162878;27;19929;-52
2022/07/26 07:47:54;;;;;;;;;;;20.30;54.50;;;;;;5150014;27;20017;-48
2022/07/26 07:50:20;;;;;;;;;;;21.10;55.70;;;;;;5164280;27;20441;-46
2022/07/26 07:52:46;;;;;;;;;;;21.80;54.20;;;;;;5164445;27;19999;-48
2022/07/26 07:55:12;;;;;;;;;;;21.00;53.50;;;;;;5170045;27;20327;-46
2022/07/26 07:57:38;;;;;;;;;;;20.60;52.90;;;;;;5164132;27;19998;-47
2022/07/26 08:00:04;;;;;;;;;;;20.40;51.80;;;;;;5169420;27;19929;-47
2022/07/26 08:02:29;;;;;;;;;;;20.30;51.60;;;;;;5164275;27;19930;-48
2022/07/26 08:04:55;;;;;;;;;;;20.10;51.10;;;;;;5143512;27;19923;-45
2022/07/26 08:07:21;;;;;;;;;;;20.00;50.80;;;;;;5168719;27;20406;-46
2022/07/26 08:09:47;;;;;;;;;;;19.90;50.80;;;;;;5163681;27;19971;-46
2022/07/26 08:12:12;;;;;;;;;;;20.00;50.80;;;;;;5145359;27;19953;-48
2022/07/26 08:14:38;;;;;;;;;;;20.60;55.00;;;;;;5169426;27;19974;-47
2022/07/26 08:17:04;;;;;;;;;;;21.50;54.50;;;;;;5163659;27;19923;-47
2022/07/26 08:19:33;;;;;;;;;;;21.50;53.30;;;;;;5169493;27;20429;-48
2022/07/26 08:21:59;;;;;;;;;;;20.80;52.70;;;;;;5163720;27;20802;-46
2022/07/26 08:24:24;;;;;;;;;;;20.50;52.10;;;;;;5162267;27;19970;-45
2022/07/26 08:26:52;;;;;;;;;;;20.30;51.60;;;;;;5168850;27;19923;-49
2022/07/26 08:29:18;;;;;;;;;;;20.20;51.10;;;;;;5163763;27;20274;-45
2022/07/26 08:31:44;;;;;;;;;;;20.20;50.70;;;;;;5163957;27;19926;-48
2022/07/26 08:34:09;;;;;;;;;;;20.20;50.40;;;;;;5169111;27;20363;-50
2022/07/26 08:36:35;;;;;;;;;;;19.80;51.10;;;;;;5163197;27;20110;-51
2022/07/26 08:39:01;;;;;;;;;;;20.20;53.30;;;;;;5165358;27;19930;-56
2022/07/26 08:41:27;;;;;;;;;;;21.10;54.80;;;;;;5164359;27;19949;-46
2022/07/26 08:43:53;;;;;;;;;;;21.80;53.50;;;;;;5162365;27;19972;-47
2022/07/26 08:46:22;;;;;;;;;;;21.10;52.70;;;;;;5168727;27;19922;-47
2022/07/26 08:48:47;;;;;;;;;;;20.70;51.80;;;;;;5163529;27;19923;-45
2022/07/26 08:51:13;;;;;;;;;;;20.40;51.70;;;;;;5163308;27;19926;-46
2022/07/26 08:53:39;;;;;;;;;;;20.30;51.20;;;;;;5149140;27;20011;-45
2022/07/26 08:56:05;;;;;;;;;;;20.30;50.30;;;;;;5143324;27;20457;-47
2022/07/26 08:58:34;;;;;;;;;;;20.20;50.30;;;;;;5162393;27;19922;-48
2022/07/26 09:01:07;;;;;;;;;;;20.00;50.40;;;;;;5167066;27;19927;-47
2022/07/26 09:03:36;;;;;;;;;;;19.90;50.20;;;;;;5144207;27;19926;-47
2022/07/26 09:06:12;;;;;;;;;;;20.40;53.80;;;;;;5166998;27;20262;-55
2022/07/26 09:08:38;;;;;;;;;;;21.30;54.20;;;;;;5168571;27;19926;-45
2022/07/26 09:11:22;;;;;;;;;;;21.80;52.80;;;;;;5142237;27;21004;-50
2022/07/26 09:13:58;;;;;;;;;;;21.10;52.00;;;;;;5166215;27;20391;-56
2022/07/26 09:16:24;;;;;;;;;;;20.50;51.60;;;;;;5167756;27;20297;-47
2022/07/26 09:18:50;;;;;;;;;;;20.30;51.30;;;;;;5161005;27;19926;-46
2022/07/26 09:21:28;;;;;;;;;;;20.10;51.10;;;;;;5167940;27;19934;-47
2022/07/26 09:23:54;;;;;;;;;;;20.30;50.40;;;;;;5163573;27;19923;-47
2022/07/26 09:26:20;;;;;;;;;;;20.10;50.30;;;;;;5162795;27;19930;-46
2022/07/26 09:28:51;;;;;;;;;;;20.00;50.30;;;;;;5168086;27;19966;-46
2022/07/26 09:31:21;;;;;;;;;;;20.00;49.90;;;;;;5162347;27;19971;-49
2022/07/26 09:33:47;;;;;;;;;;;20.70;53.80;;;;;;5162450;27;19929;-48
2022/07/26 09:36:13;;;;;;;;;;;21.70;53.10;;;;;;5147775;27;19923;-51
2022/07/26 09:38:42;;;;;;;;;;;21.40;52.30;;;;;;5161564;27;20294;-46
2022/07/26 09:41:22;;;;;;;;;;;20.70;52.00;;;;;;5143801;27;19966;-45
2022/07/26 09:43:48;;;;;;;;;;;20.50;51.40;;;;;;5167749;27;20346;-46
2022/07/26 09:46:14;;;;;;;;;;;20.20;51.00;;;;;;5143855;27;20454;-45
2022/07/26 09:48:40;;;;;;;;;;;20.30;50.00;;;;;;5164546;27;19927;-53
2022/07/26 09:51:06;;;;;;;;;;;20.20;50.10;;;;;;5165915;27;20342;-46
2022/07/26 09:53:43;;;;;;;;;;;20.10;49.80;;;;;;5161103;27;20019;-48
2022/07/26 09:56:08;;;;;;;;;;;20.00;49.70;;;;;;5166084;27;19923;-47
2022/07/26 09:58:34;;;;;;;;;;;20.30;52.50;;;;;;5143297;27;20330;-48
2022/07/26 10:01:00;;;;;;;;;;;21.10;53.90;;;;;;5162233;27;20253;-47
2022/07/26 10:03:27;;;;;;;;;;;21.80;52.70;;;;;;5167746;27;19981;-47
2022/07/26 10:05:53;;;;;;;;;;;21.00;52.10;;;;;;5161903;27;20408;-51
2022/07/26 10:08:19;;;;;;;;;;;20.40;51.80;;;;;;5142867;27;20181;-44
2022/07/26 10:10:49;;;;;;;;;;;20.40;51.00;;;;;;5167257;27;19930;-48
2022/07/26 10:13:15;;;;;;;;;;;20.20;50.90;;;;;;5160077;27;20095;-44
2022/07/26 10:15:44;;;;;;;;;;;20.00;50.40;;;;;;5165534;27;19923;-57
2022/07/26 10:18:11;;;;;;;;;;;19.90;50.00;;;;;;5164668;27;19922;-49
2022/07/26 10:20:38;;;;;;;;;;;19.90;49.90;;;;;;5143283;27;19922;-48
2022/07/26 10:23:03;;;;;;;;;;;20.30;53.00;;;;;;5167348;27;19931;-48
2022/07/26 10:25:29;;;;;;;;;;;21.10;53.70;;;;;;5161460;27;20297;-48
2022/07/26 10:27:56;;;;;;;;;;;21.90;52.20;;;;;;5161819;27;19923;-47
2022/07/26 10:30:23;;;;;;;;;;;21.10;52.30;;;;;;5166208;27;20312;-46
2022/07/26 10:32:58;;;;;;;;;;;20.60;51.80;;;;;;5160055;27;19922;-46
2022/07/26 10:35:28;;;;;;;;;;;20.40;51.20;;;;;;5161532;27;20021;-46
2022/07/26 10:38:03;;;;;;;;;;;20.30;50.50;;;;;;5167177;27;19922;-45
2022/07/26 10:40:29;;;;;;;;;;;20.10;50.70;;;;;;5161748;27;19974;-50
2022/07/26 10:43:08;;;;;;;;;;;19.80;50.20;;;;;;5162484;27;19927;-57
2022/07/26 10:45:34;;;;;;;;;;;19.80;50.00;;;;;;5166983;27;19923;-49
2022/07/26 10:48:13;;;;;;;;;;;20.00;50.80;;;;;;5161412;27;20069;-48
2022/07/26 10:50:39;;;;;;;;;;;20.70;53.90;;;;;;5161223;27;19934;-57
2022/07/26 10:53:05;;;;;;;;;;;21.80;52.90;;;;;;5165670;27;19975;-47
2022/07/26 10:55:31;;;;;;;;;;;21.50;51.90;;;;;;5142843;27;20347;-46
2022/07/26 10:57:57;;;;;;;;;;;20.80;52.00;;;;;;5162975;27;19938;-48
2022/07/26 11:00:23;;;;;;;;;;;20.50;51.60;;;;;;5161528;27;20396;-47
2022/07/26 11:02:51;;;;;;;;;;;20.30;50.80;;;;;;5161086;27;19926;-48
2022/07/26 11:05:18;;;;;;;;;;;20.10;50.30;;;;;;5167753;27;19923;-45
2022/07/26 11:07:48;;;;;;;;;;;20.10;50.00;;;;;;5162762;27;22337;-47
2022/07/26 11:10:14;;;;;;;;;;;19.80;49.90;;;;;;5164003;27;20174;-46
2022/07/26 11:12:40;;;;;;;;;;;20.30;53.40;;;;;;5170381;27;20334;-46
2022/07/26 11:15:13;;;;;;;;;;;21.30;53.30;;;;;;5165095;27;19923;-45
2022/07/26 11:17:38;;;;;;;;;;;21.80;52.10;;;;;;5169012;27;19931;-56
2022/07/26 11:20:04;;;;;;;;;;;20.90;51.90;;;;;;5166441;27;20393;-45
2022/07/26 11:22:30;;;;;;;;;;;20.60;51.50;;;;;;5164485;27;19949;-46
2022/07/26 11:24:56;;;;;;;;;;;20.50;50.70;;;;;;5151167;27;19933;-48
2022/07/26 11:27:22;;;;;;;;;;;20.40;50.40;;;;;;5162894;27;20021;-47
2022/07/26 11:29:48;;;;;;;;;;;20.30;49.70;;;;;;5164189;27;20602;-47
2022/07/26 11:32:15;;;;;;;;;;;20.20;49.70;;;;;;5170025;27;20290;-44
2022/07/26 11:34:41;;;;;;;;;;;20.00;50.00;;;;;;5164500;27;19930;-50
2022/07/26 11:37:07;;;;;;;;;;;20.20;49.50;;;;;;5165527;27;20404;-54
2022/07/26 11:39:33;;;;;;;;;;;20.00;49.50;;;;;;5169186;27;19968;-46
2022/07/26 11:41:59;;;;;;;;;;;20.30;52.90;;;;;;5164335;27;19948;-48
2022/07/26 11:44:25;;;;;;;;;;;21.30;53.20;;;;;;5168359;27;20454;-48
2022/07/26 11:46:51;;;;;;;;;;;21.80;51.70;;;;;;5163166;27;20297;-46
2022/07/26 11:49:17;;;;;;;;;;;20.90;51.70;;;;;;5164391;27;19927;-45
2022/07/26 11:51:50;;;;;;;;;;;20.60;51.20;;;;;;5169995;27;19933;-46
2022/07/26 11:54:16;;;;;;;;;;;20.30;50.70;;;;;;5164447;27;20009;-47
2022/07/26 11:56:48;;;;;;;;;;;20.10;50.30;;;;;;5164081;27;19922;-49
2022/07/26 11:59:14;;;;;;;;;;;20.00;50.10;;;;;;5169740;27;19953;-47
2022/07/26 12:01:39;;;;;;;;;;;20.00;49.90;;;;;;5163809;27;19999;-50
2022/07/26 12:04:05;;;;;;;;;;;19.80;49.60;;;;;;5166249;27;20290;-56
2022/07/26 12:06:36;;;;;;;;;;;20.00;50.70;;;;;;5146445;27;20274;-47
2022/07/26 12:09:01;;;;;;;;;;;20.90;52.70;;;;;;5145169;27;20006;-46
2022/07/26 12:11:35;;;;;;;;;;;21.80;51.70;;;;;;5169480;27;20362;-51
2022/07/26 12:14:01;;;;;;;;;;;21.30;51.10;;;;;;5163832;27;19974;-47
2022/07/26 12:16:41;;;;;;;;;;;20.70;50.90;;;;;;5163302;27;19991;-46
2022/07/26 12:19:25;;;;;;;;;;;20.30;50.60;;;;;;5169305;27;19922;-46
2022/07/26 12:21:58;;;;;;;;;;;20.10;50.40;;;;;;5161916;27;20021;-48
2022/07/26 12:24:37;;;;;;;;;;;20.10;49.70;;;;;;5163108;27;20391;-48
2022/07/26 12:27:23;;;;;;;;;;;20.00;49.40;;;;;;5169169;27;19922;-47
2022/07/26 12:29:50;;;;;;;;;;;19.80;49.40;;;;;;5166913;27;20056;-47
2022/07/26 12:32:16;;;;;;;;;;;20.50;52.60;;;;;;5144989;27;19931;-47
2022/07/26 12:35:01;;;;;;;;;;;21.50;51.80;;;;;;5168751;27;20458;-47
2022/07/26 12:37:29;;;;;;;;;;;21.60;50.70;;;;;;5164695;27;19949;-49
2022/07/26 12:40:05;;;;;;;;;;;20.70;51.10;;;;;;5161969;27;20018;-50
2022/07/26 12:42:32;;;;;;;;;;;20.50;50.10;;;;;;5168083;27;20305;-46
2022/07/26 12:44:58;;;;;;;;;;;20.20;50.00;;;;;;5144807;27;20400;-46
2022/07/26 12:47:24;;;;;;;;;;;20.10;49.70;;;;;;5143214;27;19923;-46
2022/07/26 12:49:50;;;;;;;;;;;20.10;49.10;;;;;;5150355;27;20386;-45
2022/07/26 12:52:16;;;;;;;;;;;20.10;49.00;;;;;;5162835;27;19969;-46
2022/07/26 12:54:46;;;;;;;;;;;19.90;49.40;;;;;;5163130;27;20215;-46
2022/07/26 12:57:12;;;;;;;;;;;19.90;49.00;;;;;;5168017;27;20009;-47
2022/07/26 12:59:37;;;;;;;;;;;19.80;49.00;;;;;;5161627;27;19923;-47
2022/07/26 13:02:03;;;;;;;;;;;19.90;48.70;;;;;;5149050;27;19970;-46
2022/07/26 13:04:29;;;;;;;;;;;19.80;48.50;;;;;;5163050;27;20386;-47
2022/07/26 13:06:55;;;;;;;;;;;20.30;51.80;;;;;;5163104;27;19929;-47
2022/07/26 13:09:20;;;;;;;;;;;21.30;51.30;;;;;;5168450;27;20422;-47
2022/07/26 13:11:46;;;;;;;;;;;21.80;50.10;;;;;;5144268;27;19923;-46
2022/07/26 13:14:12;;;;;;;;;;;21.00;50.30;;;;;;5162919;27;20186;-46
2022/07/26 13:16:38;;;;;;;;;;;20.60;50.10;;;;;;5166621;27;19923;-45
2022/07/26 13:19:04;;;;;;;;;;;20.40;49.90;;;;;;5161800;27;19927;-48
2022/07/26 13:21:30;;;;;;;;;;;20.30;49.50;;;;;;5167320;27;19923;-55
2022/07/26 13:23:56;;;;;;;;;;;20.10;49.60;;;;;;5146186;27;20025;-46
2022/07/26 13:26:22;;;;;;;;;;;20.30;48.50;;;;;;5162945;27;19927;-48
2022/07/26 13:28:48;;;;;;;;;;;20.00;48.90;;;;;;5167200;27;19926;-46
2022/07/26 13:31:13;;;;;;;;;;;20.00;48.90;;;;;;5162704;27;19923;-47
2022/07/26 13:33:39;;;;;;;;;;;19.80;48.80;;;;;;5162273;27;19965;-46
2022/07/26 13:36:05;;;;;;;;;;;20.40;50.70;;;;;;5147748;27;20484;-50
2022/07/26 13:38:32;;;;;;;;;;;21.50;50.40;;;;;;5162329;27;19927;-46
2022/07/26 13:41:04;;;;;;;;;;;21.80;49.30;;;;;;5163772;27;19927;-55
2022/07/26 13:43:34;;;;;;;;;;;21.00;49.80;;;;;;5168299;27;19929;-45
2022/07/26 13:46:00;;;;;;;;;;;20.50;49.90;;;;;;5162507;27;20453;-46
2022/07/26 13:48:26;;;;;;;;;;;20.20;49.80;;;;;;5167985;27;19922;-50
2022/07/26 13:50:52;;;;;;;;;;;20.30;49.10;;;;;;5162172;27;20403;-46
2022/07/26 13:53:18;;;;;;;;;;;20.20;49.00;;;;;;5160803;27;19923;-47
2022/07/26 13:55:43;;;;;;;;;;;20.10;48.60;;;;;;5166664;27;19930;-49
2022/07/26 13:58:09;;;;;;;;;;;20.00;48.70;;;;;;5162103;27;20400;-46
2022/07/26 14:00:35;;;;;;;;;;;20.10;49.40;;;;;;5162143;27;19927;-49
2022/07/26 14:03:01;;;;;;;;;;;20.90;51.10;;;;;;5147500;27;19977;-46
2022/07/26 14:05:27;;;;;;;;;;;21.80;49.70;;;;;;5162010;27;19944;-50
2022/07/26 14:07:53;;;;;;;;;;;21.20;49.60;;;;;;5167481;27;20025;-47
2022/07/26 14:10:19;;;;;;;;;;;20.70;49.80;;;;;;5161863;27;20292;-53
2022/07/26 14:12:46;;;;;;;;;;;20.40;49.60;;;;;;5160259;27;20010;-48
2022/07/26 14:15:12;;;;;;;;;;;20.30;49.30;;;;;;5167139;27;19929;-45
2022/07/26 14:17:38;;;;;;;;;;;20.10;49.10;;;;;;5161953;27;20021;-46
2022/07/26 14:20:04;;;;;;;;;;;20.20;48.40;;;;;;5141876;27;20319;-48